createdAt,value
2018-12-26T00:03:43.082Z,18.00
2018-12-26T00:09:06.117Z,22.73
2018-12-26T00:14:28.450Z,28.20
2018-12-26T00:19:50.689Z,16.97
2018-12-26T00:25:13.094Z,20.23
2018-12-26T00:30:35.569Z,18.93
2018-12-26T00:35:38.402Z,20.23
2018-12-26T00:41:00.752Z,19.07
2018-12-26T00:46:15.739Z,16.83
2018-12-26T00:51:38.036Z,16.07
2018-12-26T00:57:00.356Z,17.77
2018-12-26T01:02:22.643Z,17.67
2018-12-26T01:07:44.940Z,17.77
2018-12-26T01:13:07.234Z,19.80
2018-12-26T01:18:29.563Z,14.80
2018-12-26T01:23:51.851Z,14.20
2018-12-26T01:29:14.171Z,16.87
2018-12-26T01:34:36.458Z,18.40
2018-12-26T01:39:58.797Z,19.40
2018-12-26T01:45:01.691Z,22.87
2018-12-26T01:50:04.730Z,16.13
2018-12-26T01:55:27.039Z,13.80
2018-12-26T02:00:49.337Z,16.67
2018-12-26T02:06:11.626Z,14.77
2018-12-26T02:11:33.940Z,21.67
2018-12-26T02:16:36.782Z,15.30
2018-12-26T02:21:59.072Z,20.33
2018-12-26T02:27:21.359Z,19.23
2018-12-26T02:32:43.704Z,21.80
2018-12-26T02:37:46.468Z,19.90
2018-12-26T02:42:49.166Z,19.57
2018-12-26T02:48:04.805Z,19.37
2018-12-26T02:53:07.495Z,19.90
2018-12-26T02:58:30.640Z,20.20
2018-12-26T03:03:45.744Z,20.23
2018-12-26T03:09:08.052Z,20.63
2018-12-26T03:14:10.864Z,19.50
2018-12-26T03:19:33.171Z,32.27
2018-12-26T03:24:35.865Z,18.20
2018-12-26T03:29:58.200Z,18.47
2018-12-26T03:35:20.472Z,21.80
2018-12-26T03:40:42.764Z,19.80
2018-12-26T03:45:58.488Z,23.43
2018-12-26T03:51:01.425Z,22.10
2018-12-26T03:56:04.333Z,20.20
2018-12-26T04:01:07.020Z,19.00
2018-12-26T04:06:29.314Z,19.13
2018-12-26T04:11:51.597Z,24.90
2018-12-26T04:17:14.114Z,16.50
2018-12-26T04:22:17.148Z,20.10
2018-12-26T04:27:39.454Z,19.47
2018-12-26T04:33:01.748Z,23.33
2018-12-26T04:38:24.047Z,21.50
2018-12-26T04:43:46.381Z,19.67
2018-12-26T04:49:08.707Z,21.50
2018-12-26T04:54:30.981Z,23.13
2018-12-26T04:59:53.290Z,25.53
2018-12-26T05:05:15.600Z,23.67
2018-12-26T05:10:38.012Z,20.17
2018-12-26T05:16:00.281Z,27.73
2018-12-26T05:21:22.574Z,25.73
2018-12-26T05:26:44.892Z,25.90
2018-12-26T05:32:07.227Z,31.33
2018-12-26T05:37:29.515Z,29.77
2018-12-26T05:42:32.348Z,32.23
2018-12-26T05:47:48.199Z,34.27
2018-12-26T05:53:10.497Z,32.17
2018-12-26T05:58:32.797Z,37.50
2018-12-26T06:03:55.010Z,35.80
2018-12-26T06:09:17.310Z,41.80
2018-12-26T06:14:20.101Z,30.90
2018-12-26T06:19:42.402Z,28.60
2018-12-26T06:25:04.699Z,33.43
2018-12-26T06:30:07.523Z,31.80
2018-12-26T06:35:29.854Z,37.00
2018-12-26T06:40:52.187Z,38.07
2018-12-26T06:46:09.791Z,32.97
2018-12-26T06:51:32.009Z,33.57
2018-12-26T06:56:54.261Z,32.10
2018-12-26T07:02:16.581Z,32.10
2018-12-26T07:07:38.974Z,33.17
2018-12-26T07:13:01.305Z,38.70
2018-12-26T07:18:24.454Z,38.90
2018-12-26T07:23:46.782Z,43.87
2018-12-26T07:29:09.093Z,43.60
2018-12-26T07:34:31.468Z,35.60
2018-12-26T07:39:53.837Z,39.70
2018-12-26T07:45:09.241Z,34.43
2018-12-26T07:50:31.524Z,39.70
2018-12-26T07:55:53.826Z,36.47
2018-12-26T08:01:16.152Z,34.30
2018-12-26T08:06:38.422Z,37.97
2018-12-26T08:12:00.766Z,36.77
2018-12-26T08:17:23.087Z,37.83
2018-12-26T08:22:45.429Z,36.37
2018-12-26T08:28:07.731Z,44.80
2018-12-26T08:33:30.106Z,36.37
2018-12-26T08:38:52.439Z,38.50
2018-12-26T08:44:07.407Z,36.50
2018-12-26T08:49:10.212Z,44.30
2018-12-26T08:54:32.555Z,40.37
2018-12-26T08:59:54.889Z,44.43
2018-12-26T09:05:17.160Z,40.87
2018-12-26T09:10:39.503Z,48.73
2018-12-26T09:16:01.802Z,37.67
2018-12-26T09:21:23.979Z,44.07
2018-12-26T09:26:46.527Z,50.67
2018-12-26T09:32:08.877Z,48.83
2018-12-26T09:37:32.171Z,56.87
2018-12-26T09:42:54.622Z,43.47
2018-12-26T09:48:10.466Z,44.10
2018-12-26T09:53:32.883Z,47.13
2018-12-26T09:59:15.739Z,42.20
2018-12-26T10:04:20.734Z,47.53
2018-12-26T10:09:44.388Z,51.53
2018-12-26T10:15:08.344Z,53.80
2018-12-26T10:20:31.522Z,52.53
2018-12-26T10:25:55.163Z,46.60
2018-12-26T10:31:18.031Z,47.50
2018-12-26T10:36:43.933Z,51.17
2018-12-26T10:42:10.260Z,54.90
2018-12-26T10:47:32.436Z,46.00
2018-12-26T10:52:38.176Z,54.60
2018-12-26T10:58:04.167Z,51.90
2018-12-26T11:03:13.665Z,42.73
2018-12-26T11:08:18.452Z,46.10
2018-12-26T11:13:41.263Z,52.57
2018-12-26T11:19:04.631Z,69.67
2018-12-26T11:24:49.205Z,56.93
2018-12-26T11:35:44.315Z,54.47
2018-12-26T11:41:08.413Z,54.27
2018-12-26T11:46:24.529Z,50.33
2018-12-26T11:51:48.208Z,57.17
2018-12-26T11:56:52.384Z,59.23
2018-12-26T12:02:20.757Z,62.33
2018-12-26T12:07:43.152Z,57.30
2018-12-26T12:13:06.811Z,59.40
2018-12-26T12:24:45.768Z,61.80
2018-12-26T12:30:28.436Z,55.90
2018-12-26T12:35:51.871Z,54.77
2018-12-26T12:41:15.389Z,62.33
2018-12-26T12:46:32.586Z,61.20
2018-12-26T12:51:37.012Z,59.63
2018-12-26T12:56:53.297Z,58.33
2018-12-26T13:01:58.918Z,54.87
2018-12-26T13:07:22.507Z,48.57
2018-12-26T13:12:46.333Z,49.73
2018-12-26T13:18:09.690Z,65.43
2018-12-26T13:23:14.149Z,54.40
2018-12-26T13:28:37.860Z,57.17
2018-12-26T13:34:01.109Z,60.70
2018-12-26T13:44:37.326Z,60.63
2018-12-26T13:50:21.545Z,51.27
2018-12-26T13:55:47.044Z,49.77
2018-12-26T14:01:11.948Z,44.90
2018-12-26T14:06:36.965Z,52.20
2018-12-26T14:11:59.409Z,46.00
2018-12-26T14:17:22.581Z,49.60
2018-12-26T14:22:44.989Z,52.53
2018-12-26T14:28:07.276Z,45.17
2018-12-26T14:33:11.392Z,49.87
2018-12-26T14:38:35.178Z,49.83
2018-12-26T14:44:01.247Z,57.87
2018-12-26T14:49:09.256Z,49.33
2018-12-26T14:54:33.519Z,52.57
2018-12-26T14:59:38.417Z,50.57
2018-12-26T15:04:43.611Z,53.30
2018-12-26T15:10:07.710Z,60.77
2018-12-26T15:15:31.000Z,48.23
2018-12-26T15:20:54.706Z,54.33
2018-12-26T15:25:59.374Z,45.33
2018-12-26T15:31:03.856Z,49.30
2018-12-26T15:36:07.378Z,48.37
2018-12-26T15:41:12.139Z,63.70
2018-12-26T15:46:28.427Z,52.73
2018-12-26T15:51:52.214Z,48.73
2018-12-26T15:57:16.284Z,53.83
2018-12-26T16:02:39.173Z,57.03
2018-12-26T16:07:44.092Z,52.43
2018-12-26T16:13:07.221Z,49.00
2018-12-26T16:18:31.433Z,50.27
2018-12-26T16:23:53.815Z,63.63
2018-12-26T16:28:56.666Z,59.93
2018-12-26T16:33:59.655Z,55.50
2018-12-26T16:39:03.619Z,51.30
2018-12-26T16:44:19.295Z,66.33
2018-12-26T16:49:41.687Z,46.40
2018-12-26T16:55:04.577Z,52.83
2018-12-26T17:00:26.920Z,48.43
2018-12-26T17:05:29.893Z,48.00
2018-12-26T17:10:33.089Z,51.77
2018-12-26T17:15:55.548Z,55.97
2018-12-26T17:21:18.267Z,58.20
2018-12-26T17:26:41.708Z,56.10
2018-12-26T17:31:44.800Z,47.07
2018-12-26T17:37:07.553Z,46.83
2018-12-26T17:42:29.861Z,49.77
2018-12-26T17:47:44.974Z,48.63
2018-12-26T17:53:09.792Z,46.70
2018-12-26T17:58:12.804Z,41.60
2018-12-26T18:03:35.235Z,55.40
2018-12-26T18:08:57.552Z,52.47
2018-12-26T18:14:19.901Z,43.30
2018-12-26T18:19:42.460Z,50.47
2018-12-26T18:25:06.745Z,58.93
2018-12-26T18:30:29.086Z,55.47
2018-12-26T18:35:51.480Z,45.00
2018-12-26T18:40:54.371Z,44.83
2018-12-26T18:46:10.289Z,49.67
2018-12-26T18:51:32.718Z,41.43
2018-12-26T18:56:55.106Z,48.60
2018-12-26T19:02:17.508Z,42.07
2018-12-26T19:07:39.798Z,49.03
2018-12-26T19:13:02.211Z,41.13
2018-12-26T19:18:24.629Z,48.40
2018-12-26T19:23:47.065Z,45.13
2018-12-26T19:29:09.465Z,58.97
2018-12-26T19:34:31.784Z,62.00
2018-12-26T19:39:54.103Z,59.67
2018-12-26T19:45:09.223Z,62.30
2018-12-26T19:50:31.693Z,56.83
2018-12-26T19:55:54.035Z,47.97
2018-12-26T20:01:16.367Z,64.13
2018-12-26T20:06:38.787Z,67.87
2018-12-26T20:12:04.838Z,70.57
2018-12-26T20:17:07.759Z,56.53
2018-12-26T20:22:30.078Z,75.50
2018-12-26T20:27:32.906Z,74.63
2018-12-26T20:32:55.303Z,68.80
2018-12-26T20:37:58.156Z,60.47
2018-12-26T20:43:20.461Z,69.93
2018-12-26T20:48:35.839Z,58.33
2018-12-26T20:53:58.170Z,61.83
2018-12-26T20:59:20.491Z,57.40
2018-12-26T21:04:42.817Z,61.27
2018-12-26T21:09:45.646Z,62.90
2018-12-26T21:15:07.997Z,55.33
2018-12-26T21:20:30.311Z,65.87
2018-12-26T21:25:52.607Z,61.30
2018-12-26T21:31:14.893Z,57.23
2018-12-26T21:36:17.814Z,56.43
2018-12-26T21:41:20.641Z,54.53
2018-12-26T21:46:35.910Z,59.83
2018-12-26T21:51:38.709Z,70.20
2018-12-26T21:56:41.581Z,62.90
2018-12-26T22:01:44.501Z,64.40
2018-12-26T22:07:06.818Z,61.73
2018-12-26T22:12:29.205Z,59.37
2018-12-26T22:17:51.491Z,56.60
2018-12-26T22:23:13.806Z,61.00
2018-12-26T22:28:16.617Z,63.90
2018-12-26T22:33:38.933Z,66.93
2018-12-26T22:39:01.223Z,71.83
2018-12-26T22:44:16.420Z,71.50
2018-12-26T22:49:38.717Z,62.30
2018-12-26T22:55:01.015Z,67.30
2018-12-26T23:00:43.059Z,68.77
2018-12-26T23:05:45.865Z,60.50
2018-12-26T23:11:08.176Z,54.03
2018-12-26T23:16:30.478Z,59.23
2018-12-26T23:21:52.769Z,50.97
2018-12-26T23:27:15.045Z,50.93
2018-12-26T23:32:37.357Z,55.30
2018-12-26T23:37:40.143Z,60.83
2018-12-26T23:43:02.737Z,50.30
2018-12-26T23:48:18.285Z,50.57
2018-12-26T23:53:43.765Z,40.03
2018-12-26T23:59:06.198Z,56.83
